sensor_id;sensor_type;location;lat;lon;timestamp;P1;durP1;ratioP1;P2;durP2;ratioP2
12314;SDS011;23886;46.614;14.276;2022-11-15T00:01:36;24.23;;;21.63;;
12314;SDS011;23886;46.614;14.276;2022-11-15T00:04:03;24.23;;;21.63;;
12314;SDS011;23886;46.614;14.276;2022-11-15T00:06:32;24.27;;;21.67;;
12314;SDS011;23886;46.614;14.276;2022-11-15T00:08:59;27.10;;;23.13;;
12314;SDS011;23886;46.614;14.276;2022-11-15T00:11:27;25.40;;;22.13;;
12314;SDS011;23886;46.614;14.276;2022-11-15T00:13:56;23.70;;;21.30;;
12314;SDS011;23886;46.614;14.276;2022-11-15T00:16:23;24.13;;;21.03;;
12314;SDS011;23886;46.614;14.276;2022-11-15T00:18:50;23.60;;;21.03;;
12314;SDS011;23886;46.614;14.276;2022-11-15T00:21:18;25.67;;;22.67;;
12314;SDS011;23886;46.614;14.276;2022-11-15T00:23:46;23.63;;;20.87;;
12314;SDS011;23886;46.614;14.276;2022-11-15T00:26:14;24.23;;;21.73;;
12314;SDS011;23886;46.614;14.276;2022-11-15T00:28:41;24.57;;;22.00;;
12314;SDS011;23886;46.614;14.276;2022-11-15T00:31:09;24.73;;;21.30;;
12314;SDS011;23886;46.614;14.276;2022-11-15T00:33:38;24.87;;;21.30;;
12314;SDS011;23886;46.614;14.276;2022-11-15T00:36:06;22.57;;;20.10;;
12314;SDS011;23886;46.614;14.276;2022-11-15T00:38:36;21.40;;;19.17;;
12314;SDS011;23886;46.614;14.276;2022-11-15T00:41:07;21.57;;;18.53;;
12314;SDS011;23886;46.614;14.276;2022-11-15T00:43:34;20.80;;;18.67;;
12314;SDS011;23886;46.614;14.276;2022-11-15T00:46:02;21.73;;;19.43;;
12314;SDS011;23886;46.614;14.276;2022-11-15T00:48:29;20.93;;;18.67;;
12314;SDS011;23886;46.614;14.276;2022-11-15T00:50:56;22.47;;;19.57;;
12314;SDS011;23886;46.614;14.276;2022-11-15T00:53:23;21.33;;;18.20;;
12314;SDS011;23886;46.614;14.276;2022-11-15T00:55:50;20.97;;;18.83;;
12314;SDS011;23886;46.614;14.276;2022-11-15T00:58:19;20.57;;;18.47;;
12314;SDS011;23886;46.614;14.276;2022-11-15T01:00:46;19.03;;;17.13;;
12314;SDS011;23886;46.614;14.276;2022-11-15T01:03:13;18.67;;;16.83;;
12314;SDS011;23886;46.614;14.276;2022-11-15T01:05:40;20.13;;;18.03;;
12314;SDS011;23886;46.614;14.276;2022-11-15T01:08:10;20.17;;;18.07;;
12314;SDS011;23886;46.614;14.276;2022-11-15T01:10:39;19.90;;;17.90;;
12314;SDS011;23886;46.614;14.276;2022-11-15T01:13:06;20.37;;;18.10;;
12314;SDS011;23886;46.614;14.276;2022-11-15T01:15:34;19.73;;;17.73;;
12314;SDS011;23886;46.614;14.276;2022-11-15T01:18:05;18.43;;;16.60;;
12314;SDS011;23886;46.614;14.276;2022-11-15T01:20:32;20.53;;;18.33;;
12314;SDS011;23886;46.614;14.276;2022-11-15T01:22:59;20.07;;;17.97;;
12314;SDS011;23886;46.614;14.276;2022-11-15T01:25:26;20.27;;;17.97;;
12314;SDS011;23886;46.614;14.276;2022-11-15T01:27:53;20.13;;;18.03;;
12314;SDS011;23886;46.614;14.276;2022-11-15T01:30:20;19.83;;;17.83;;
12314;SDS011;23886;46.614;14.276;2022-11-15T01:32:48;19.20;;;16.87;;
12314;SDS011;23886;46.614;14.276;2022-11-15T01:35:15;21.93;;;18.83;;
12314;SDS011;23886;46.614;14.276;2022-11-15T01:37:42;20.50;;;17.67;;
12314;SDS011;23886;46.614;14.276;2022-11-15T01:40:09;18.33;;;16.40;;
12314;SDS011;23886;46.614;14.276;2022-11-15T01:42:37;20.10;;;18.00;;
12314;SDS011;23886;46.614;14.276;2022-11-15T01:45:04;17.87;;;16.03;;
12314;SDS011;23886;46.614;14.276;2022-11-15T01:47:33;17.33;;;15.63;;
12314;SDS011;23886;46.614;14.276;2022-11-15T01:50:08;16.67;;;15.00;;
12314;SDS011;23886;46.614;14.276;2022-11-15T01:52:38;18.47;;;16.47;;
12314;SDS011;23886;46.614;14.276;2022-11-15T01:55:07;17.50;;;15.67;;
12314;SDS011;23886;46.614;14.276;2022-11-15T01:57:37;16.07;;;14.47;;
12314;SDS011;23886;46.614;14.276;2022-11-15T02:00:07;15.77;;;14.23;;
12314;SDS011;23886;46.614;14.276;2022-11-15T02:02:35;16.27;;;14.67;;
12314;SDS011;23886;46.614;14.276;2022-11-15T02:05:03;16.30;;;14.67;;
12314;SDS011;23886;46.614;14.276;2022-11-15T02:07:32;16.70;;;15.10;;
12314;SDS011;23886;46.614;14.276;2022-11-15T02:10:02;15.07;;;13.53;;
12314;SDS011;23886;46.614;14.276;2022-11-15T02:12:34;15.43;;;13.93;;
12314;SDS011;23886;46.614;14.276;2022-11-15T02:15:02;15.77;;;13.87;;
12314;SDS011;23886;46.614;14.276;2022-11-15T02:26:24;15.67;;;13.97;;
12314;SDS011;23886;46.614;14.276;2022-11-15T02:29:21;16.30;;;14.53;;
12314;SDS011;23886;46.614;14.276;2022-11-15T02:31:59;14.40;;;13.00;;
12314;SDS011;23886;46.614;14.276;2022-11-15T02:34:34;14.83;;;13.33;;
12314;SDS011;23886;46.614;14.276;2022-11-15T02:37:10;14.33;;;12.90;;
12314;SDS011;23886;46.614;14.276;2022-11-15T02:39:45;13.97;;;12.67;;
12314;SDS011;23886;46.614;14.276;2022-11-15T02:42:18;15.03;;;13.40;;
12314;SDS011;23886;46.614;14.276;2022-11-15T02:45:21;14.27;;;12.80;;
12314;SDS011;23886;46.614;14.276;2022-11-15T02:47:54;14.10;;;12.70;;
12314;SDS011;23886;46.614;14.276;2022-11-15T02:50:25;13.43;;;12.00;;
12314;SDS011;23886;46.614;14.276;2022-11-15T02:52:55;15.20;;;13.73;;
12314;SDS011;23886;46.614;14.276;2022-11-15T02:55:26;16.07;;;12.73;;
12314;SDS011;23886;46.614;14.276;2022-11-15T02:57:58;14.67;;;13.17;;
12314;SDS011;23886;46.614;14.276;2022-11-15T03:00:38;13.30;;;12.00;;
12314;SDS011;23886;46.614;14.276;2022-11-15T03:03:24;14.70;;;13.30;;
12314;SDS011;23886;46.614;14.276;2022-11-15T03:06:04;14.77;;;13.17;;
12314;SDS011;23886;46.614;14.276;2022-11-15T03:08:41;14.63;;;13.13;;
12314;SDS011;23886;46.614;14.276;2022-11-15T03:11:17;13.93;;;12.53;;
12314;SDS011;23886;46.614;14.276;2022-11-15T03:13:49;14.77;;;13.27;;
12314;SDS011;23886;46.614;14.276;2022-11-15T03:16:24;13.83;;;12.50;;
12314;SDS011;23886;46.614;14.276;2022-11-15T03:18:57;14.70;;;13.20;;
12314;SDS011;23886;46.614;14.276;2022-11-15T03:21:29;15.13;;;13.60;;
12314;SDS011;23886;46.614;14.276;2022-11-15T03:23:58;13.97;;;12.57;;
12314;SDS011;23886;46.614;14.276;2022-11-15T03:26:30;13.23;;;11.93;;
12314;SDS011;23886;46.614;14.276;2022-11-15T03:29:00;13.60;;;12.20;;
12314;SDS011;23886;46.614;14.276;2022-11-15T03:31:31;13.37;;;12.07;;
12314;SDS011;23886;46.614;14.276;2022-11-15T03:34:19;13.03;;;11.73;;
12314;SDS011;23886;46.614;14.276;2022-11-15T03:36:50;12.13;;;11.00;;
12314;SDS011;23886;46.614;14.276;2022-11-15T03:39:18;12.20;;;11.00;;
12314;SDS011;23886;46.614;14.276;2022-11-15T03:41:48;11.60;;;10.40;;
12314;SDS011;23886;46.614;14.276;2022-11-15T03:44:21;11.17;;;10.17;;
12314;SDS011;23886;46.614;14.276;2022-11-15T03:47:01;11.17;;;10.07;;
12314;SDS011;23886;46.614;14.276;2022-11-15T03:49:34;10.77;;;9.77;;
12314;SDS011;23886;46.614;14.276;2022-11-15T03:52:03;13.17;;;11.10;;
12314;SDS011;23886;46.614;14.276;2022-11-15T03:54:30;11.30;;;10.07;;
12314;SDS011;23886;46.614;14.276;2022-11-15T03:56:58;12.77;;;11.57;;
12314;SDS011;23886;46.614;14.276;2022-11-15T03:59:25;12.40;;;11.10;;
12314;SDS011;23886;46.614;14.276;2022-11-15T04:01:51;11.70;;;10.60;;
12314;SDS011;23886;46.614;14.276;2022-11-15T04:04:18;11.87;;;10.77;;
12314;SDS011;23886;46.614;14.276;2022-11-15T04:06:47;12.00;;;10.80;;
12314;SDS011;23886;46.614;14.276;2022-11-15T04:09:14;10.77;;;9.77;;
12314;SDS011;23886;46.614;14.276;2022-11-15T04:11:41;13.07;;;11.77;;
12314;SDS011;23886;46.614;14.276;2022-11-15T04:14:08;12.83;;;11.43;;
12314;SDS011;23886;46.614;14.276;2022-11-15T04:16:35;10.67;;;9.60;;
12314;SDS011;23886;46.614;14.276;2022-11-15T04:19:02;10.37;;;9.33;;
12314;SDS011;23886;46.614;14.276;2022-11-15T04:21:46;10.83;;;9.83;;
12314;SDS011;23886;46.614;14.276;2022-11-15T04:24:31;9.83;;;8.83;;
12314;SDS011;23886;46.614;14.276;2022-11-15T04:26:58;10.77;;;9.77;;
12314;SDS011;23886;46.614;14.276;2022-11-15T04:29:25;9.83;;;8.93;;
12314;SDS011;23886;46.614;14.276;2022-11-15T04:32:01;9.63;;;8.73;;
12314;SDS011;23886;46.614;14.276;2022-11-15T04:34:28;10.33;;;9.33;;
12314;SDS011;23886;46.614;14.276;2022-11-15T04:36:56;9.90;;;9.00;;
12314;SDS011;23886;46.614;14.276;2022-11-15T04:39:39;10.27;;;9.17;;
12314;SDS011;23886;46.614;14.276;2022-11-15T04:42:06;10.37;;;9.37;;
12314;SDS011;23886;46.614;14.276;2022-11-15T04:44:33;10.00;;;9.00;;
12314;SDS011;23886;46.614;14.276;2022-11-15T04:47:00;10.10;;;9.20;;
12314;SDS011;23886;46.614;14.276;2022-11-15T04:49:27;10.50;;;9.47;;
12314;SDS011;23886;46.614;14.276;2022-11-15T04:51:54;10.80;;;9.73;;
12314;SDS011;23886;46.614;14.276;2022-11-15T04:54:23;10.33;;;9.43;;
12314;SDS011;23886;46.614;14.276;2022-11-15T04:56:50;10.33;;;9.33;;
12314;SDS011;23886;46.614;14.276;2022-11-15T04:59:17;9.93;;;9.03;;
12314;SDS011;23886;46.614;14.276;2022-11-15T05:01:44;9.53;;;8.63;;
12314;SDS011;23886;46.614;14.276;2022-11-15T05:04:11;9.57;;;8.73;;
12314;SDS011;23886;46.614;14.276;2022-11-15T05:06:46;9.30;;;8.40;;
12314;SDS011;23886;46.614;14.276;2022-11-15T05:09:16;9.20;;;8.30;;
12314;SDS011;23886;46.614;14.276;2022-11-15T05:11:43;8.60;;;7.80;;
12314;SDS011;23886;46.614;14.276;2022-11-15T05:14:10;9.60;;;8.60;;
12314;SDS011;23886;46.614;14.276;2022-11-15T05:16:37;8.90;;;8.00;;
12314;SDS011;23886;46.614;14.276;2022-11-15T05:19:04;9.43;;;8.53;;
12314;SDS011;23886;46.614;14.276;2022-11-15T05:21:32;9.07;;;8.27;;
12314;SDS011;23886;46.614;14.276;2022-11-15T05:23:59;8.77;;;7.87;;
12314;SDS011;23886;46.614;14.276;2022-11-15T05:26:28;9.80;;;8.70;;
12314;SDS011;23886;46.614;14.276;2022-11-15T05:28:56;10.77;;;9.77;;
12314;SDS011;23886;46.614;14.276;2022-11-15T05:31:24;10.10;;;9.20;;
12314;SDS011;23886;46.614;14.276;2022-11-15T05:33:52;10.53;;;9.53;;
12314;SDS011;23886;46.614;14.276;2022-11-15T05:36:24;10.90;;;9.90;;
12314;SDS011;23886;46.614;14.276;2022-11-15T05:38:55;11.63;;;10.43;;
12314;SDS011;23886;46.614;14.276;2022-11-15T05:41:24;10.33;;;9.37;;
12314;SDS011;23886;46.614;14.276;2022-11-15T05:43:58;9.90;;;9.00;;
12314;SDS011;23886;46.614;14.276;2022-11-15T05:46:26;10.67;;;9.37;;
12314;SDS011;23886;46.614;14.276;2022-11-15T05:48:53;9.50;;;8.60;;
12314;SDS011;23886;46.614;14.276;2022-11-15T05:51:22;9.07;;;8.27;;
12314;SDS011;23886;46.614;14.276;2022-11-15T05:53:50;9.23;;;8.33;;
12314;SDS011;23886;46.614;14.276;2022-11-15T05:56:19;9.23;;;8.40;;
12314;SDS011;23886;46.614;14.276;2022-11-15T05:58:46;8.57;;;7.70;;
12314;SDS011;23886;46.614;14.276;2022-11-15T06:01:14;8.70;;;7.80;;
12314;SDS011;23886;46.614;14.276;2022-11-15T06:03:41;8.80;;;8.00;;
12314;SDS011;23886;46.614;14.276;2022-11-15T06:06:08;8.87;;;8.07;;
12314;SDS011;23886;46.614;14.276;2022-11-15T06:08:35;8.17;;;7.47;;
12314;SDS011;23886;46.614;14.276;2022-11-15T06:11:03;8.87;;;8.00;;
12314;SDS011;23886;46.614;14.276;2022-11-15T06:13:30;8.87;;;8.07;;
12314;SDS011;23886;46.614;14.276;2022-11-15T06:15:58;10.43;;;9.13;;
12314;SDS011;23886;46.614;14.276;2022-11-15T06:18:26;8.80;;;8.00;;
12314;SDS011;23886;46.614;14.276;2022-11-15T06:20:53;9.07;;;7.97;;
12314;SDS011;23886;46.614;14.276;2022-11-15T06:23:24;9.63;;;8.53;;
12314;SDS011;23886;46.614;14.276;2022-11-15T06:25:51;12.37;;;11.03;;
12314;SDS011;23886;46.614;14.276;2022-11-15T06:28:18;14.93;;;11.10;;
12314;SDS011;23886;46.614;14.276;2022-11-15T06:30:45;18.10;;;15.07;;
12314;SDS011;23886;46.614;14.276;2022-11-15T06:33:12;15.53;;;13.33;;
12314;SDS011;23886;46.614;14.276;2022-11-15T06:35:40;12.93;;;11.50;;
12314;SDS011;23886;46.614;14.276;2022-11-15T06:38:08;16.30;;;13.83;;
12314;SDS011;23886;46.614;14.276;2022-11-15T06:40:36;14.30;;;12.80;;
12314;SDS011;23886;46.614;14.276;2022-11-15T06:43:05;15.30;;;13.70;;
12314;SDS011;23886;46.614;14.276;2022-11-15T06:45:32;16.77;;;13.17;;
12314;SDS011;23886;46.614;14.276;2022-11-15T06:47:59;16.17;;;12.40;;
12314;SDS011;23886;46.614;14.276;2022-11-15T06:50:26;11.83;;;10.63;;
12314;SDS011;23886;46.614;14.276;2022-11-15T06:52:55;13.00;;;10.77;;
12314;SDS011;23886;46.614;14.276;2022-11-15T06:55:26;12.73;;;10.83;;
12314;SDS011;23886;46.614;14.276;2022-11-15T06:57:53;12.77;;;10.87;;
12314;SDS011;23886;46.614;14.276;2022-11-15T07:00:20;11.87;;;10.77;;
12314;SDS011;23886;46.614;14.276;2022-11-15T07:02:48;11.85;;;10.85;;
12314;SDS011;23886;46.614;14.276;2022-11-15T07:05:15;12.47;;;11.27;;
12314;SDS011;23886;46.614;14.276;2022-11-15T07:07:43;11.77;;;10.57;;
12314;SDS011;23886;46.614;14.276;2022-11-15T07:10:18;12.17;;;10.97;;
12314;SDS011;23886;46.614;14.276;2022-11-15T07:12:46;11.70;;;10.60;;
12314;SDS011;23886;46.614;14.276;2022-11-15T07:15:14;15.77;;;12.50;;
12314;SDS011;23886;46.614;14.276;2022-11-15T07:17:41;12.77;;;10.90;;
12314;SDS011;23886;46.614;14.276;2022-11-15T07:20:08;11.50;;;10.43;;
12314;SDS011;23886;46.614;14.276;2022-11-15T07:22:35;11.10;;;10.00;;
12314;SDS011;23886;46.614;14.276;2022-11-15T07:25:03;11.73;;;10.60;;
12314;SDS011;23886;46.614;14.276;2022-11-15T07:27:31;11.57;;;10.37;;
12314;SDS011;23886;46.614;14.276;2022-11-15T07:29:58;10.57;;;9.57;;
12314;SDS011;23886;46.614;14.276;2022-11-15T07:32:25;9.63;;;8.63;;
12314;SDS011;23886;46.614;14.276;2022-11-15T07:34:53;9.30;;;8.40;;
12314;SDS011;23886;46.614;14.276;2022-11-15T07:37:20;10.60;;;9.57;;
12314;SDS011;23886;46.614;14.276;2022-11-15T07:39:47;9.93;;;8.93;;
12314;SDS011;23886;46.614;14.276;2022-11-15T07:42:14;9.63;;;8.70;;
12314;SDS011;23886;46.614;14.276;2022-11-15T07:45:09;9.30;;;8.37;;
12314;SDS011;23886;46.614;14.276;2022-11-15T07:47:36;9.47;;;8.53;;
12314;SDS011;23886;46.614;14.276;2022-11-15T07:50:03;10.60;;;9.40;;
12314;SDS011;23886;46.614;14.276;2022-11-15T07:52:31;11.03;;;10.03;;
12314;SDS011;23886;46.614;14.276;2022-11-15T07:54:58;15.03;;;13.40;;
12314;SDS011;23886;46.614;14.276;2022-11-15T07:57:25;14.53;;;13.13;;
12314;SDS011;23886;46.614;14.276;2022-11-15T07:59:52;11.10;;;9.93;;
12314;SDS011;23886;46.614;14.276;2022-11-15T08:02:20;7.30;;;6.70;;
12314;SDS011;23886;46.614;14.276;2022-11-15T08:04:47;6.90;;;6.30;;
12314;SDS011;23886;46.614;14.276;2022-11-15T08:07:14;6.57;;;5.97;;
12314;SDS011;23886;46.614;14.276;2022-11-15T08:09:41;5.90;;;5.40;;
12314;SDS011;23886;46.614;14.276;2022-11-15T08:12:08;5.70;;;5.20;;
12314;SDS011;23886;46.614;14.276;2022-11-15T08:14:35;5.33;;;4.93;;
12314;SDS011;23886;46.614;14.276;2022-11-15T08:17:02;6.73;;;5.10;;
12314;SDS011;23886;46.614;14.276;2022-11-15T08:19:30;5.90;;;5.13;;
12314;SDS011;23886;46.614;14.276;2022-11-15T08:21:57;5.87;;;5.37;;
12314;SDS011;23886;46.614;14.276;2022-11-15T08:24:24;5.27;;;4.77;;
12314;SDS011;23886;46.614;14.276;2022-11-15T08:26:52;5.20;;;4.80;;
12314;SDS011;23886;46.614;14.276;2022-11-15T08:29:19;5.30;;;4.90;;
12314;SDS011;23886;46.614;14.276;2022-11-15T08:31:46;5.10;;;4.60;;
12314;SDS011;23886;46.614;14.276;2022-11-15T08:34:13;5.07;;;4.63;;
12314;SDS011;23886;46.614;14.276;2022-11-15T08:36:42;5.10;;;4.70;;
12314;SDS011;23886;46.614;14.276;2022-11-15T08:39:09;4.40;;;4.00;;
12314;SDS011;23886;46.614;14.276;2022-11-15T08:41:37;4.20;;;3.90;;
12314;SDS011;23886;46.614;14.276;2022-11-15T08:44:04;4.20;;;3.80;;
12314;SDS011;23886;46.614;14.276;2022-11-15T08:46:31;4.27;;;3.90;;
12314;SDS011;23886;46.614;14.276;2022-11-15T08:48:58;5.43;;;4.67;;
12314;SDS011;23886;46.614;14.276;2022-11-15T08:51:25;5.30;;;4.90;;
12314;SDS011;23886;46.614;14.276;2022-11-15T08:53:53;4.67;;;4.03;;
12314;SDS011;23886;46.614;14.276;2022-11-15T08:56:20;5.00;;;4.60;;
12314;SDS011;23886;46.614;14.276;2022-11-15T08:58:47;5.20;;;4.80;;
12314;SDS011;23886;46.614;14.276;2022-11-15T09:01:15;4.93;;;4.53;;
12314;SDS011;23886;46.614;14.276;2022-11-15T09:03:43;4.80;;;4.40;;
12314;SDS011;23886;46.614;14.276;2022-11-15T09:06:10;4.90;;;4.50;;
12314;SDS011;23886;46.614;14.276;2022-11-15T09:08:37;5.07;;;4.50;;
12314;SDS011;23886;46.614;14.276;2022-11-15T09:11:06;4.90;;;4.50;;
12314;SDS011;23886;46.614;14.276;2022-11-15T09:13:35;4.80;;;4.40;;
12314;SDS011;23886;46.614;14.276;2022-11-15T09:16:03;5.93;;;4.60;;
12314;SDS011;23886;46.614;14.276;2022-11-15T09:18:31;6.47;;;4.20;;
12314;SDS011;23886;46.614;14.276;2022-11-15T09:20:58;4.80;;;4.27;;
12314;SDS011;23886;46.614;14.276;2022-11-15T09:23:27;5.93;;;3.97;;
12314;SDS011;23886;46.614;14.276;2022-11-15T09:25:57;4.93;;;4.00;;
12314;SDS011;23886;46.614;14.276;2022-11-15T09:28:27;3.80;;;3.50;;
12314;SDS011;23886;46.614;14.276;2022-11-15T09:30:55;4.10;;;3.70;;
12314;SDS011;23886;46.614;14.276;2022-11-15T09:33:23;5.83;;;3.83;;
12314;SDS011;23886;46.614;14.276;2022-11-15T09:35:50;4.80;;;3.80;;
12314;SDS011;23886;46.614;14.276;2022-11-15T09:38:18;4.03;;;3.63;;
12314;SDS011;23886;46.614;14.276;2022-11-15T09:40:45;6.57;;;3.77;;
12314;SDS011;23886;46.614;14.276;2022-11-15T09:43:25;4.07;;;3.73;;
12314;SDS011;23886;46.614;14.276;2022-11-15T09:46:03;4.63;;;4.27;;
12314;SDS011;23886;46.614;14.276;2022-11-15T09:51:24;3.87;;;3.57;;
12314;SDS011;23886;46.614;14.276;2022-11-15T09:53:57;3.90;;;3.60;;
12314;SDS011;23886;46.614;14.276;2022-11-15T09:56:31;4.33;;;3.93;;
12314;SDS011;23886;46.614;14.276;2022-11-15T09:59:05;4.20;;;3.90;;
12314;SDS011;23886;46.614;14.276;2022-11-15T10:01:47;3.87;;;3.57;;
12314;SDS011;23886;46.614;14.276;2022-11-15T10:04:21;4.20;;;3.80;;
12314;SDS011;23886;46.614;14.276;2022-11-15T10:06:51;3.80;;;3.50;;
12314;SDS011;23886;46.614;14.276;2022-11-15T10:09:23;4.13;;;3.83;;
12314;SDS011;23886;46.614;14.276;2022-11-15T10:11:54;4.43;;;3.47;;
12314;SDS011;23886;46.614;14.276;2022-11-15T10:14:24;6.43;;;4.30;;
12314;SDS011;23886;46.614;14.276;2022-11-15T10:20:02;3.80;;;3.50;;
12314;SDS011;23886;46.614;14.276;2022-11-15T10:22:39;4.30;;;3.90;;
12314;SDS011;23886;46.614;14.276;2022-11-15T10:25:16;4.10;;;3.70;;
12314;SDS011;23886;46.614;14.276;2022-11-15T10:27:50;4.10;;;3.80;;
12314;SDS011;23886;46.614;14.276;2022-11-15T10:30:22;4.10;;;3.73;;
12314;SDS011;23886;46.614;14.276;2022-11-15T10:32:49;4.00;;;3.70;;
12314;SDS011;23886;46.614;14.276;2022-11-15T10:35:21;3.67;;;3.37;;
12314;SDS011;23886;46.614;14.276;2022-11-15T10:37:50;3.40;;;3.10;;
12314;SDS011;23886;46.614;14.276;2022-11-15T10:40:18;3.77;;;3.30;;
12314;SDS011;23886;46.614;14.276;2022-11-15T10:42:47;3.20;;;2.90;;
12314;SDS011;23886;46.614;14.276;2022-11-15T10:45:26;3.20;;;2.90;;
12314;SDS011;23886;46.614;14.276;2022-11-15T10:48:02;3.90;;;2.93;;
12314;SDS011;23886;46.614;14.276;2022-11-15T10:50:47;3.00;;;2.80;;
12314;SDS011;23886;46.614;14.276;2022-11-15T10:53:17;3.27;;;2.97;;
12314;SDS011;23886;46.614;14.276;2022-11-15T10:56:04;3.50;;;3.10;;
12314;SDS011;23886;46.614;14.276;2022-11-15T10:58:35;3.73;;;2.80;;
12314;SDS011;23886;46.614;14.276;2022-11-15T11:01:15;3.30;;;3.03;;
12314;SDS011;23886;46.614;14.276;2022-11-15T11:03:44;3.00;;;2.80;;
12314;SDS011;23886;46.614;14.276;2022-11-15T11:06:12;3.87;;;3.07;;
12314;SDS011;23886;46.614;14.276;2022-11-15T11:08:40;5.10;;;3.20;;
12314;SDS011;23886;46.614;14.276;2022-11-15T11:11:19;3.27;;;2.87;;
12314;SDS011;23886;46.614;14.276;2022-11-15T11:13:46;4.53;;;2.80;;
12314;SDS011;23886;46.614;14.276;2022-11-15T11:16:18;4.03;;;3.10;;
12314;SDS011;23886;46.614;14.276;2022-11-15T11:18:51;2.97;;;2.77;;
12314;SDS011;23886;46.614;14.276;2022-11-15T11:21:25;2.60;;;2.40;;
12314;SDS011;23886;46.614;14.276;2022-11-15T11:23:58;2.53;;;2.33;;
12314;SDS011;23886;46.614;14.276;2022-11-15T11:26:35;2.73;;;2.53;;
12314;SDS011;23886;46.614;14.276;2022-11-15T11:29:12;2.50;;;2.30;;
12314;SDS011;23886;46.614;14.276;2022-11-15T11:31:51;3.13;;;2.90;;
12314;SDS011;23886;46.614;14.276;2022-11-15T11:34:29;2.70;;;2.50;;
12314;SDS011;23886;46.614;14.276;2022-11-15T11:37:09;3.03;;;2.73;;
12314;SDS011;23886;46.614;14.276;2022-11-15T11:39:40;2.80;;;2.60;;
12314;SDS011;23886;46.614;14.276;2022-11-15T11:42:16;2.80;;;2.60;;
12314;SDS011;23886;46.614;14.276;2022-11-15T11:45:00;2.57;;;2.37;;
12314;SDS011;23886;46.614;14.276;2022-11-15T11:47:44;2.80;;;2.60;;
12314;SDS011;23886;46.614;14.276;2022-11-15T11:50:14;2.80;;;2.60;;
12314;SDS011;23886;46.614;14.276;2022-11-15T11:52:48;2.70;;;2.50;;
12314;SDS011;23886;46.614;14.276;2022-11-15T11:55:23;2.70;;;2.50;;
12314;SDS011;23886;46.614;14.276;2022-11-15T11:57:57;3.00;;;2.70;;
12314;SDS011;23886;46.614;14.276;2022-11-15T12:00:31;2.60;;;2.40;;
12314;SDS011;23886;46.614;14.276;2022-11-15T12:03:11;2.87;;;2.67;;
12314;SDS011;23886;46.614;14.276;2022-11-15T12:05:42;2.97;;;2.67;;
12314;SDS011;23886;46.614;14.276;2022-11-15T12:08:22;2.50;;;2.30;;
12314;SDS011;23886;46.614;14.276;2022-11-15T12:10:57;4.93;;;2.70;;
12314;SDS011;23886;46.614;14.276;2022-11-15T12:13:30;3.40;;;2.50;;
12314;SDS011;23886;46.614;14.276;2022-11-15T12:16:05;4.27;;;2.70;;
12314;SDS011;23886;46.614;14.276;2022-11-15T12:18:39;2.60;;;2.40;;
12314;SDS011;23886;46.614;14.276;2022-11-15T12:21:13;2.70;;;2.50;;
12314;SDS011;23886;46.614;14.276;2022-11-15T12:23:46;2.70;;;2.50;;
12314;SDS011;23886;46.614;14.276;2022-11-15T12:26:17;2.60;;;2.40;;
12314;SDS011;23886;46.614;14.276;2022-11-15T12:28:47;2.70;;;2.50;;
12314;SDS011;23886;46.614;14.276;2022-11-15T12:31:32;2.60;;;2.30;;
12314;SDS011;23886;46.614;14.276;2022-11-15T12:34:13;2.60;;;2.40;;
12314;SDS011;23886;46.614;14.276;2022-11-15T12:36:54;3.03;;;2.73;;
12314;SDS011;23886;46.614;14.276;2022-11-15T12:39:25;2.77;;;2.57;;
12314;SDS011;23886;46.614;14.276;2022-11-15T12:42:56;2.60;;;2.40;;
12314;SDS011;23886;46.614;14.276;2022-11-15T12:45:28;3.20;;;2.90;;
12314;SDS011;23886;46.614;14.276;2022-11-15T12:48:23;3.40;;;2.60;;
12314;SDS011;23886;46.614;14.276;2022-11-15T12:51:22;4.07;;;2.80;;
12314;SDS011;23886;46.614;14.276;2022-11-15T13:00:02;2.80;;;2.60;;
12314;SDS011;23886;46.614;14.276;2022-11-15T13:02:47;2.50;;;2.30;;
12314;SDS011;23886;46.614;14.276;2022-11-15T13:08:43;3.10;;;2.90;;
12314;SDS011;23886;46.614;14.276;2022-11-15T13:20:00;3.03;;;2.83;;
12314;SDS011;23886;46.614;14.276;2022-11-15T13:22:38;3.63;;;2.60;;
12314;SDS011;23886;46.614;14.276;2022-11-15T13:28:20;2.80;;;2.27;;
12314;SDS011;23886;46.614;14.276;2022-11-15T13:30:53;3.17;;;2.87;;
12314;SDS011;23886;46.614;14.276;2022-11-15T13:33:22;2.40;;;2.20;;
12314;SDS011;23886;46.614;14.276;2022-11-15T13:35:52;2.80;;;2.60;;
12314;SDS011;23886;46.614;14.276;2022-11-15T13:38:25;2.90;;;2.60;;
12314;SDS011;23886;46.614;14.276;2022-11-15T13:40:54;2.70;;;2.50;;
12314;SDS011;23886;46.614;14.276;2022-11-15T13:43:29;3.20;;;2.70;;
12314;SDS011;23886;46.614;14.276;2022-11-15T13:46:05;2.50;;;2.30;;
12314;SDS011;23886;46.614;14.276;2022-11-15T13:48:33;3.03;;;2.70;;
12314;SDS011;23886;46.614;14.276;2022-11-15T13:51:00;3.97;;;3.10;;
12314;SDS011;23886;46.614;14.276;2022-11-15T13:53:30;2.60;;;2.40;;
12314;SDS011;23886;46.614;14.276;2022-11-15T13:55:58;2.73;;;2.40;;
12314;SDS011;23886;46.614;14.276;2022-11-15T13:58:26;2.80;;;2.50;;
12314;SDS011;23886;46.614;14.276;2022-11-15T14:00:58;2.80;;;2.60;;
12314;SDS011;23886;46.614;14.276;2022-11-15T14:03:29;3.00;;;2.50;;
12314;SDS011;23886;46.614;14.276;2022-11-15T14:08:57;2.80;;;2.60;;
12314;SDS011;23886;46.614;14.276;2022-11-15T14:11:51;2.70;;;2.50;;
12314;SDS011;23886;46.614;14.276;2022-11-15T14:14:20;2.60;;;2.40;;
12314;SDS011;23886;46.614;14.276;2022-11-15T14:16:49;2.70;;;2.50;;
12314;SDS011;23886;46.614;14.276;2022-11-15T14:19:34;3.00;;;2.70;;
12314;SDS011;23886;46.614;14.276;2022-11-15T14:22:13;3.73;;;2.83;;
12314;SDS011;23886;46.614;14.276;2022-11-15T14:24:43;3.73;;;2.80;;
12314;SDS011;23886;46.614;14.276;2022-11-15T14:27:15;2.47;;;2.27;;
12314;SDS011;23886;46.614;14.276;2022-11-15T14:29:47;3.43;;;2.40;;
12314;SDS011;23886;46.614;14.276;2022-11-15T14:32:16;3.17;;;2.53;;
12314;SDS011;23886;46.614;14.276;2022-11-15T14:34:45;3.43;;;3.13;;
12314;SDS011;23886;46.614;14.276;2022-11-15T14:37:19;3.60;;;2.80;;
12314;SDS011;23886;46.614;14.276;2022-11-15T14:39:48;4.63;;;3.20;;
12314;SDS011;23886;46.614;14.276;2022-11-15T14:42:15;4.23;;;3.00;;
12314;SDS011;23886;46.614;14.276;2022-11-15T14:44:42;3.70;;;2.70;;
12314;SDS011;23886;46.614;14.276;2022-11-15T14:47:09;4.17;;;3.17;;
12314;SDS011;23886;46.614;14.276;2022-11-15T14:49:36;4.63;;;2.87;;
12314;SDS011;23886;46.614;14.276;2022-11-15T14:52:10;4.10;;;3.70;;
12314;SDS011;23886;46.614;14.276;2022-11-15T14:54:51;4.43;;;3.70;;
12314;SDS011;23886;46.614;14.276;2022-11-15T14:57:18;4.53;;;3.60;;
12314;SDS011;23886;46.614;14.276;2022-11-15T14:59:45;4.60;;;3.30;;
12314;SDS011;23886;46.614;14.276;2022-11-15T15:02:14;4.43;;;3.43;;
12314;SDS011;23886;46.614;14.276;2022-11-15T15:04:44;4.77;;;3.50;;
12314;SDS011;23886;46.614;14.276;2022-11-15T15:07:13;4.87;;;3.50;;
12314;SDS011;23886;46.614;14.276;2022-11-15T15:09:40;4.20;;;3.53;;
12314;SDS011;23886;46.614;14.276;2022-11-15T15:12:13;4.90;;;4.00;;
12314;SDS011;23886;46.614;14.276;2022-11-15T15:14:42;5.27;;;3.63;;
12314;SDS011;23886;46.614;14.276;2022-11-15T15:17:10;5.13;;;3.53;;
12314;SDS011;23886;46.614;14.276;2022-11-15T15:19:37;5.10;;;4.13;;
12314;SDS011;23886;46.614;14.276;2022-11-15T15:22:05;4.43;;;4.03;;
12314;SDS011;23886;46.614;14.276;2022-11-15T15:24:37;5.87;;;4.57;;